Time;durP1;ratioP1;P1;durP2;ratioP2;P2;SDS_P1;SDS_P2;PMS_P1;PMS_P2;Temp;Humidity;BMP_temperature;BMP_pressure;BME280_temperature;BME280_humidity;BME280_pressure;Samples;Min_cycle;Max_cycle;Signal;HPM_P1;HPM_P2
2024/03/25 00:02:07;;;;;;;24.27;3.13;;;;;;;3.48;100.00;100896.91;5077693;28;20043;-81
2024/03/25 00:04:32;;;;;;;16.33;2.90;;;;;;;3.37;100.00;100892.25;5095384;28;20115;-81
2024/03/25 00:06:58;;;;;;;14.20;3.28;;;;;;;3.26;100.00;100884.16;5095652;28;20032;-81
2024/03/25 00:09:24;;;;;;;15.48;2.38;;;;;;;3.15;100.00;100890.03;5095098;28;20032;-81
2024/03/25 00:11:53;;;;;;;20.00;3.03;;;;;;;3.06;100.00;100893.22;5097798;28;20085;-81
2024/03/25 00:14:22;;;;;;;20.45;2.88;;;;;;;3.02;100.00;100894.34;5095909;28;20089;-86
2024/03/25 00:16:47;;;;;;;19.40;2.53;;;;;;;2.94;100.00;100884.25;5077072;28;20496;-81
2024/03/25 00:19:13;;;;;;;18.40;2.67;;;;;;;2.84;100.00;100883.94;5094908;28;20043;-81
2024/03/25 00:21:38;;;;;;;22.58;2.80;;;;;;;2.73;100.00;100876.69;5094960;28;20080;-81
2024/03/25 00:24:04;;;;;;;17.55;2.97;;;;;;;2.66;100.00;100891.09;5095115;28;20115;-81
2024/03/25 00:26:29;;;;;;;16.52;3.08;;;;;;;2.57;100.00;100886.38;5076411;28;20042;-82
2024/03/25 00:28:55;;;;;;;17.17;2.47;;;;;;;2.53;100.00;100890.09;5094726;28;20028;-81
2024/03/25 00:31:20;;;;;;;17.35;2.70;;;;;;;2.52;100.00;100889.22;5095436;28;20038;-80
2024/03/25 00:33:45;;;;;;;29.63;2.90;;;;;;;2.59;100.00;100890.59;5094666;28;20108;-81
2024/03/25 00:36:11;;;;;;;19.83;2.55;;;;;;;2.61;100.00;100895.75;5094322;28;20468;-81
2024/03/25 00:38:36;;;;;;;26.20;3.22;;;;;;;2.68;100.00;100891.84;5094389;28;20484;-80
2024/03/25 00:41:02;;;;;;;20.38;2.65;;;;;;;2.74;100.00;100891.50;5094321;28;20448;-81
2024/03/25 00:43:27;;;;;;;14.20;2.90;;;;;;;2.71;100.00;100891.69;5094313;28;20475;-80
2024/03/25 00:45:53;;;;;;;16.38;3.13;;;;;;;2.70;100.00;100902.28;5094539;28;20035;-81
2024/03/25 00:48:18;;;;;;;20.63;2.75;;;;;;;2.63;100.00;100891.28;5075873;28;20036;-81
2024/03/25 00:50:44;;;;;;;27.30;3.60;;;;;;;2.59;100.00;100885.34;5094267;28;20081;-82
2024/03/25 00:53:09;;;;;;;16.42;2.50;;;;;;;2.49;100.00;100897.28;5076039;28;20030;-81
2024/03/25 00:55:35;;;;;;;20.90;2.28;;;;;;;2.32;100.00;100892.16;5094018;28;20040;-81
2024/03/25 00:58:02;;;;;;;24.48;3.08;;;;;;;2.14;100.00;100894.84;5094475;28;20134;-80
2024/03/25 01:00:27;;;;;;;16.48;2.38;;;;;;;1.97;100.00;100890.50;5094036;28;20035;-81
2024/03/25 01:02:52;;;;;;;15.80;2.53;;;;;;;1.85;100.00;100888.53;5075894;28;20036;-80
2024/03/25 01:05:18;;;;;;;13.27;2.30;;;;;;;1.85;100.00;100902.50;5094038;28;20039;-80
2024/03/25 01:07:43;;;;;;;14.95;3.45;;;;;;;1.89;100.00;100900.56;5093957;28;20077;-80
2024/03/25 01:10:09;;;;;;;13.70;2.25;;;;;;;1.94;100.00;100906.41;5058789;28;20074;-79
2024/03/25 01:12:34;;;;;;;19.75;2.67;;;;;;;2.01;100.00;100906.94;5093805;28;20031;-80
2024/03/25 01:15:00;;;;;;;15.50;2.42;;;;;;;2.08;100.00;100909.13;5075456;28;20111;-80
2024/03/25 01:17:25;;;;;;;22.65;2.97;;;;;;;2.15;100.00;100907.03;5093526;28;20048;-81
2024/03/25 01:19:50;;;;;;;17.20;2.40;;;;;;;2.18;100.00;100906.88;5093556;28;20095;-80
2024/03/25 01:22:15;;;;;;;13.05;2.33;;;;;;;2.16;100.00;100906.09;5093959;28;20089;-80
2024/03/25 01:24:41;;;;;;;13.13;2.17;;;;;;;2.10;100.00;100915.13;5093309;28;20028;-80
2024/03/25 01:27:06;;;;;;;13.95;2.50;;;;;;;2.08;100.00;100909.13;5093320;28;20116;-79
2024/03/25 01:29:32;;;;;;;19.00;2.47;;;;;;;2.05;100.00;100897.97;5093356;28;20387;-80
2024/03/25 01:31:59;;;;;;;15.52;3.03;;;;;;;2.00;100.00;100900.84;5093524;28;20360;-78
2024/03/25 01:34:26;;;;;;;27.08;3.03;;;;;;;2.03;100.00;100905.94;5093483;28;20024;-79
2024/03/25 01:36:52;;;;;;;24.38;2.53;;;;;;;2.07;100.00;100906.59;5093692;28;20160;-79
2024/03/25 01:39:18;;;;;;;22.38;2.90;;;;;;;2.10;100.00;100901.19;5093622;28;20328;-79
2024/03/25 01:41:44;;;;;;;12.02;2.30;;;;;;;2.13;100.00;100902.78;5093400;28;20460;-79
2024/03/25 01:44:09;;;;;;;17.75;3.00;;;;;;;2.15;100.00;100901.78;5093569;28;20469;-79
2024/03/25 01:46:35;;;;;;;13.93;2.15;;;;;;;2.13;100.00;100897.56;5093201;28;20396;-80
2024/03/25 01:49:01;;;;;;;15.45;2.90;;;;;;;2.05;100.00;100903.22;5075170;28;20036;-79
2024/03/25 01:51:26;;;;;;;14.15;2.78;;;;;;;1.96;100.00;100894.06;5092853;28;20039;-79
2024/03/25 01:53:54;;;;;;;12.45;2.65;;;;;;;1.94;100.00;100898.53;5092830;28;20491;-79
2024/03/25 01:56:22;;;;;;;13.50;2.45;;;;;;;1.90;100.00;100895.22;5074531;28;20119;-79
2024/03/25 01:58:47;;;;;;;21.10;3.03;;;;;;;1.88;100.00;100904.97;5092519;28;20437;-80
2024/03/25 02:01:14;;;;;;;18.13;2.92;;;;;;;1.84;100.00;100892.94;5074554;28;20105;-79
2024/03/25 02:03:42;;;;;;;21.13;2.45;;;;;;;1.82;100.00;100902.69;5074883;28;20040;-80
2024/03/25 02:06:12;;;;;;;17.92;2.40;;;;;;;1.77;100.00;100908.13;5074981;28;20020;-79
2024/03/25 02:08:40;;;;;;;14.80;2.67;;;;;;;1.71;100.00;100899.75;5092704;28;20052;-80
2024/03/25 02:11:06;;;;;;;22.98;3.22;;;;;;;1.65;100.00;100906.16;5092645;28;20091;-79
2024/03/25 02:13:32;;;;;;;15.02;2.42;;;;;;;1.63;100.00;100905.41;5091535;28;20024;-79
2024/03/25 02:15:58;;;;;;;17.75;2.63;;;;;;;1.57;100.00;100900.47;5092440;28;20464;-79
2024/03/25 02:18:23;;;;;;;19.40;3.05;;;;;;;1.49;100.00;100897.41;5092741;28;20023;-78
2024/03/25 02:20:48;;;;;;;22.17;2.47;;;;;;;1.39;100.00;100890.00;5092254;28;20063;-79
2024/03/25 02:23:14;;;;;;;14.25;2.17;;;;;;;1.34;100.00;100884.13;5092401;28;20031;-79
2024/03/25 02:25:42;;;;;;;9.00;1.80;;;;;;;1.29;100.00;100880.09;5092308;28;20173;-79
2024/03/25 02:28:07;;;;;;;15.10;2.10;;;;;;;1.22;100.00;100877.78;5092668;28;20111;-79
2024/03/25 02:30:33;;;;;;;10.75;2.08;;;;;;;1.22;100.00;100869.91;5092220;28;20118;-79
2024/03/25 02:32:58;;;;;;;9.38;2.08;;;;;;;1.25;100.00;100870.66;5092057;28;20445;-80
2024/03/25 02:35:26;;;;;;;12.13;2.03;;;;;;;1.29;100.00;100870.44;5092090;28;20467;-79
2024/03/25 02:37:53;;;;;;;11.90;2.40;;;;;;;1.30;100.00;100871.25;5073720;28;20480;-79
2024/03/25 02:40:19;;;;;;;8.80;1.42;;;;;;;1.30;100.00;100869.50;5074220;28;20024;-79
2024/03/25 02:42:45;;;;;;;12.15;2.50;;;;;;;1.35;100.00;100866.66;5091988;28;20024;-79
2024/03/25 02:45:10;;;;;;;10.98;1.95;;;;;;;1.40;100.00;100867.25;5092823;28;20135;-79
2024/03/25 02:47:36;;;;;;;12.40;2.03;;;;;;;1.44;100.00;100867.97;5056975;28;20035;-79
2024/03/25 02:50:01;;;;;;;15.95;2.58;;;;;;;1.46;100.00;100869.53;5091657;28;20051;-79
2024/03/25 02:52:26;;;;;;;19.65;2.13;;;;;;;1.48;100.00;100865.09;5091764;28;20074;-79
2024/03/25 02:54:54;;;;;;;4.78;1.67;;;;;;;1.52;100.00;100871.88;5073544;28;20534;-79
2024/03/25 02:57:19;;;;;;;13.85;3.97;;;;;;;1.52;100.00;100863.16;5091668;28;20034;-79
2024/03/25 02:59:44;;;;;;;12.45;2.83;;;;;;;1.53;100.00;100865.69;5091593;28;20383;-80
2024/03/25 03:02:09;;;;;;;12.25;3.38;;;;;;;1.49;100.00;100861.53;5091612;28;20082;-79
2024/03/25 03:04:35;;;;;;;12.88;2.30;;;;;;;1.42;100.00;100860.16;5091593;28;20083;-79
2024/03/25 03:07:00;;;;;;;16.52;2.72;;;;;;;1.31;100.00;100846.75;5073385;28;20052;-78
2024/03/25 03:09:25;;;;;;;8.25;2.08;;;;;;;1.21;100.00;100849.03;5091638;28;20028;-79
2024/03/25 03:11:51;;;;;;;8.35;2.25;;;;;;;1.13;100.00;100856.41;5091749;28;20066;-79
2024/03/25 03:14:16;;;;;;;13.73;2.30;;;;;;;1.09;100.00;100841.75;5073217;28;20032;-79
2024/03/25 03:16:42;;;;;;;8.55;2.38;;;;;;;1.01;100.00;100848.22;5091266;28;20063;-79
2024/03/25 03:19:07;;;;;;;11.75;2.67;;;;;;;0.95;100.00;100847.72;5091221;28;20028;-79
2024/03/25 03:21:32;;;;;;;15.25;2.97;;;;;;;0.91;100.00;100854.88;5091488;28;20084;-79
2024/03/25 03:23:58;;;;;;;15.63;2.88;;;;;;;0.90;100.00;100847.94;5092364;28;20127;-80
2024/03/25 03:26:26;;;;;;;12.10;2.13;;;;;;;0.88;100.00;100841.91;5095701;28;20020;-79
2024/03/25 03:28:55;;;;;;;16.85;2.58;;;;;;;0.85;100.00;100847.31;5095516;28;20035;-80
2024/03/25 03:31:21;;;;;;;19.55;2.58;;;;;;;0.82;100.00;100844.84;5095909;28;20060;-79
2024/03/25 03:33:50;;;;;;;12.35;2.40;;;;;;;0.79;100.00;100845.88;5095641;28;20064;-82
2024/03/25 03:36:17;;;;;;;11.52;2.38;;;;;;;0.76;100.00;100842.53;5095507;28;20054;-80
2024/03/25 03:38:42;;;;;;;8.55;2.10;;;;;;;0.73;100.00;100840.06;5095387;28;20046;-80
2024/03/25 03:41:08;;;;;;;7.43;2.20;;;;;;;0.67;100.00;100842.06;5096129;28;20028;-80
2024/03/25 03:43:33;;;;;;;10.75;2.05;;;;;;;0.63;100.00;100839.69;5096340;28;20261;-80
2024/03/25 03:45:58;;;;;;;12.27;2.25;;;;;;;0.61;100.00;100838.91;5097286;28;20210;-79
2024/03/25 03:48:24;;;;;;;14.00;3.60;;;;;;;0.60;100.00;100838.06;5077357;28;20027;-80
2024/03/25 03:50:49;;;;;;;15.98;2.25;;;;;;;0.59;100.00;100838.97;5095292;28;20221;-80
2024/03/25 03:53:14;;;;;;;16.33;2.30;;;;;;;0.58;100.00;100839.88;5095981;28;20128;-78
2024/03/25 03:55:40;;;;;;;13.77;2.72;;;;;;;0.59;100.00;100832.91;5077515;28;20466;-79
2024/03/25 03:58:05;;;;;;;17.92;2.60;;;;;;;0.57;100.00;100832.09;5095821;28;20487;-80
2024/03/25 04:00:35;;;;;;;11.25;2.97;;;;;;;0.56;100.00;100839.13;5095582;28;20043;-80
2024/03/25 04:03:00;;;;;;;15.85;3.28;;;;;;;0.55;100.00;100829.56;5095673;28;20364;-79
2024/03/25 04:05:30;;;;;;;11.48;2.42;;;;;;;0.55;100.00;100826.94;5076732;28;20024;-80
2024/03/25 04:07:55;;;;;;;11.00;2.72;;;;;;;0.56;100.00;100825.19;5095064;28;20039;-80
2024/03/25 04:10:21;;;;;;;17.23;2.45;;;;;;;0.57;100.00;100827.72;5094832;28;20032;-80
2024/03/25 04:12:46;;;;;;;16.63;2.38;;;;;;;0.56;100.00;100827.81;5094903;28;20043;-81
2024/03/25 04:15:17;;;;;;;12.15;2.38;;;;;;;0.51;100.00;100830.66;5076292;28;20077;-80
2024/03/25 04:17:46;;;;;;;17.15;2.55;;;;;;;0.44;100.00;100824.84;5094578;28;20432;-78
2024/03/25 04:20:12;;;;;;;6.45;2.10;;;;;;;0.37;100.00;100825.22;5094684;28;20117;-78
2024/03/25 04:22:42;;;;;;;17.25;2.65;;;;;;;0.30;100.00;100833.38;5094433;28;20032;-79
2024/03/25 04:25:11;;;;;;;23.63;3.38;;;;;;;0.23;100.00;100826.72;5094854;28;20024;-79
2024/03/25 04:27:45;;;;;;;12.55;2.28;;;;;;;0.17;100.00;100825.25;5076450;28;20464;-78
2024/03/25 04:30:11;;;;;;;13.63;3.08;;;;;;;0.12;100.00;100832.47;5094825;28;20036;-80
2024/03/25 04:32:37;;;;;;;13.52;2.28;;;;;;;0.07;100.00;100825.75;5094759;28;20028;-78
2024/03/25 04:35:04;;;;;;;8.02;2.53;;;;;;;0.03;100.00;100827.69;5096368;28;20399;-78
2024/03/25 04:37:29;;;;;;;10.43;1.90;;;;;;;-0.02;100.00;100825.25;5095233;28;20036;-78
2024/03/25 04:39:55;;;;;;;10.40;2.40;;;;;;;-0.03;100.00;100825.34;5095213;28;20051;-87
2024/03/25 04:42:21;;;;;;;15.32;2.85;;;;;;;-0.06;100.00;100828.97;5078436;28;20042;-78
2024/03/25 04:44:47;;;;;;;19.00;2.78;;;;;;;-0.04;100.00;100826.28;5094316;28;20024;-78
2024/03/25 04:47:13;;;;;;;15.02;3.03;;;;;;;-0.02;100.00;100833.09;5094569;28;20061;-78
2024/03/25 04:49:39;;;;;;;14.15;2.42;;;;;;;-0.01;100.00;100831.34;5094225;28;20107;-78
2024/03/25 04:52:04;;;;;;;12.27;3.08;;;;;;;-0.03;100.00;100839.28;5093973;28;20123;-78
2024/03/25 04:54:30;;;;;;;31.40;3.35;;;;;;;-0.06;100.00;100835.94;5094061;28;20089;-78
2024/03/25 04:56:55;;;;;;;13.30;2.30;;;;;;;-0.10;100.00;100830.00;5093970;28;20428;-78
2024/03/25 04:59:21;;;;;;;12.95;2.50;;;;;;;-0.14;100.00;100835.47;5093904;28;20459;-78
2024/03/25 05:01:46;;;;;;;6.80;2.35;;;;;;;-0.19;100.00;100830.44;5093944;28;20101;-78
2024/03/25 05:04:12;;;;;;;11.90;2.60;;;;;;;-0.23;100.00;100831.50;5093666;28;20038;-80
2024/03/25 05:06:37;;;;;;;10.77;2.08;;;;;;;-0.28;100.00;100834.31;5093966;28;20127;-79
2024/03/25 05:09:02;;;;;;;11.07;2.67;;;;;;;-0.35;100.00;100832.91;5093710;28;20020;-80
2024/03/25 05:11:28;;;;;;;9.50;2.30;;;;;;;-0.41;100.00;100833.19;5093652;28;20369;-79
2024/03/25 05:13:53;;;;;;;11.20;2.17;;;;;;;-0.48;100.00;100837.81;5075354;28;20024;-79
2024/03/25 05:16:18;;;;;;;8.05;2.45;;;;;;;-0.52;100.00;100841.50;5094145;28;20052;-79
2024/03/25 05:18:44;;;;;;;13.10;2.75;;;;;;;-0.54;100.00;100832.88;5093530;28;20478;-79
2024/03/25 05:21:09;;;;;;;7.82;2.33;;;;;;;-0.58;100.00;100834.78;5093324;28;20106;-81
2024/03/25 05:23:38;;;;;;;11.05;3.00;;;;;;;-0.63;100.00;100831.50;5095378;28;20334;-80
2024/03/25 05:26:04;;;;;;;16.95;2.42;;;;;;;-0.66;100.00;100825.56;5078648;28;20032;-80
2024/03/25 05:28:29;;;;;;;7.72;1.85;;;;;;;-0.68;100.00;100828.25;5095920;28;20051;-80
2024/03/25 05:30:54;;;;;;;13.27;2.78;;;;;;;-0.67;100.00;100829.09;5096176;28;20028;-79
2024/03/25 05:33:20;;;;;;;7.47;1.98;;;;;;;-0.67;100.00;100829.97;5095401;28;20027;-79
2024/03/25 05:35:45;;;;;;;10.98;2.80;;;;;;;-0.68;100.00;100822.19;5097195;28;20028;-79
2024/03/25 05:38:16;;;;;;;13.23;3.00;;;;;;;-0.68;100.00;100828.25;5095383;28;20111;-78
2024/03/25 05:40:45;;;;;;;6.93;2.58;;;;;;;-0.71;100.00;100821.38;5079843;28;20453;-82
2024/03/25 05:43:10;;;;;;;10.50;2.80;;;;;;;-0.73;100.00;100815.38;5079165;28;20396;-79
2024/03/25 05:45:36;;;;;;;10.48;2.35;;;;;;;-0.73;100.00;100828.47;5076611;28;20046;-79
2024/03/25 05:48:05;;;;;;;14.43;2.58;;;;;;;-0.73;100.00;100814.56;5075993;28;20081;-79
2024/03/25 05:50:30;;;;;;;9.00;2.50;;;;;;;-0.72;100.00;100819.72;5075492;28;20031;-79
2024/03/25 05:52:56;;;;;;;8.25;2.40;;;;;;;-0.71;100.00;100823.16;5094626;28;20035;-79
2024/03/25 05:55:21;;;;;;;6.88;2.20;;;;;;;-0.73;100.00;100817.16;5094734;28;20028;-79
2024/03/25 05:57:47;;;;;;;13.95;3.15;;;;;;;-0.72;100.00;100816.22;5076576;28;20433;-80
2024/03/25 06:00:13;;;;;;;7.93;2.75;;;;;;;-0.68;100.00;100822.19;5076508;28;20032;-80
2024/03/25 06:02:38;;;;;;;14.48;3.53;;;;;;;-0.66;100.00;100800.28;5076518;28;20055;-80
2024/03/25 06:05:04;;;;;;;11.10;2.30;;;;;;;-0.65;100.00;100808.97;5076517;28;20468;-79
2024/03/25 06:07:30;;;;;;;17.30;3.95;;;;;;;-0.63;100.00;100804.53;5074715;28;20036;-80
2024/03/25 06:09:55;;;;;;;8.98;2.60;;;;;;;-0.62;100.00;100807.06;5093031;28;20031;-78
2024/03/25 06:12:21;;;;;;;13.05;3.78;;;;;;;-0.61;100.00;100800.94;5093378;28;20027;-80
2024/03/25 06:14:49;;;;;;;19.13;6.78;;;;;;;-0.57;100.00;100812.09;5093801;28;20418;-79
2024/03/25 06:17:14;;;;;;;15.55;6.38;;;;;;;-0.55;100.00;100799.81;5055591;28;20049;-78
2024/03/25 06:19:40;;;;;;;18.40;5.07;;;;;;;-0.51;100.00;100798.75;5073136;28;20098;-80
2024/03/25 06:22:05;;;;;;;13.90;4.43;;;;;;;-0.45;100.00;100793.25;5075133;28;20107;-79
2024/03/25 06:24:30;;;;;;;15.93;4.68;;;;;;;-0.37;100.00;100798.97;5070922;28;20059;-79
2024/03/25 06:26:56;;;;;;;16.88;4.10;;;;;;;-0.28;100.00;100800.31;5072379;28;20024;-80
2024/03/25 06:29:22;;;;;;;12.70;3.88;;;;;;;-0.16;100.00;100800.66;5073739;28;20043;-79
2024/03/25 06:34:39;;;;;;;15.05;4.60;;;;;;;0.11;100.00;100799.38;5057208;28;20029;-80
2024/03/25 06:37:04;;;;;;;13.05;4.25;;;;;;;0.28;100.00;100795.94;5054163;28;20080;-81
2024/03/25 06:39:30;;;;;;;13.60;4.55;;;;;;;0.43;100.00;100791.72;5070618;28;20032;-80
2024/03/25 06:41:55;;;;;;;22.83;5.40;;;;;;;0.56;100.00;100794.59;5072136;28;20107;-81
2024/03/25 06:44:20;;;;;;;19.55;4.28;;;;;;;0.76;100.00;100795.38;5072205;28;20028;-81
2024/03/25 06:46:46;;;;;;;15.73;4.82;;;;;;;0.94;100.00;100796.22;5071031;28;20032;-80
2024/03/25 06:49:11;;;;;;;39.30;6.35;;;;;;;1.16;100.00;100802.06;5071854;28;20028;-80
2024/03/25 06:51:36;;;;;;;19.88;5.53;;;;;;;1.29;100.00;100797.03;5071768;28;20082;-81
2024/03/25 06:54:02;;;;;;;16.98;4.85;;;;;;;1.43;100.00;100796.28;5073267;28;20155;-80
2024/03/25 06:56:28;;;;;;;21.55;5.50;;;;;;;1.55;100.00;100800.03;5073063;28;20108;-81
2024/03/25 06:58:53;;;;;;;18.95;5.93;;;;;;;1.70;100.00;100801.00;5075051;28;20055;-81
2024/03/25 07:01:19;;;;;;;24.33;7.05;;;;;;;1.84;100.00;100801.09;5072068;28;20446;-81
2024/03/25 07:03:44;;;;;;;25.25;7.45;;;;;;;2.00;100.00;100792.38;5071919;28;20127;-79
2024/03/25 07:06:09;;;;;;;36.08;8.13;;;;;;;2.23;100.00;100788.47;5071580;28;20031;-80
2024/03/25 07:08:35;;;;;;;34.92;8.73;;;;;;;2.37;100.00;100792.94;5070214;28;20060;-79
2024/03/25 07:11:00;;;;;;;28.38;7.45;;;;;;;2.48;100.00;100806.31;5072784;28;20047;-79
2024/03/25 07:13:26;;;;;;;27.00;7.28;;;;;;;2.62;100.00;100800.25;5071833;28;20035;-80
2024/03/25 07:15:51;;;;;;;31.23;7.88;;;;;;;2.75;100.00;100798.59;5075443;28;20020;-78
2024/03/25 07:18:17;;;;;;;35.92;7.32;;;;;;;2.91;100.00;100798.56;5094496;28;20100;-86
2024/03/25 07:20:43;;;;;;;29.85;6.72;;;;;;;3.04;100.00;100803.09;5094733;28;20047;-79
2024/03/25 07:23:12;;;;;;;30.00;7.05;;;;;;;3.16;100.00;100807.59;5095361;28;20035;-80
2024/03/25 07:25:38;;;;;;;34.05;8.55;;;;;;;3.28;100.00;100804.22;5073807;28;20063;-80
2024/03/25 07:28:04;;;;;;;25.25;7.28;;;;;;;3.39;100.00;100798.34;5075559;28;20395;-81
2024/03/25 07:30:43;;;;;;;30.13;7.97;;;;;;;3.50;100.00;100801.13;5095142;28;20032;-80
2024/03/25 07:33:17;;;;;;;34.35;8.18;;;;;;;3.64;100.00;100802.06;5079076;28;20024;-79
2024/03/25 07:35:42;;;;;;;30.52;8.90;;;;;;;3.81;100.00;100809.78;5094873;28;20040;-79
2024/03/25 07:38:08;;;;;;;31.25;8.32;;;;;;;4.01;100.00;100811.13;5075650;28;20076;-79
2024/03/25 07:40:34;;;;;;;33.95;9.13;;;;;;;4.17;100.00;100811.00;5075707;28;20047;-79
2024/03/25 07:42:59;;;;;;;32.97;9.00;;;;;;;4.38;100.00;100813.22;5075175;28;20418;-79
2024/03/25 07:45:25;;;;;;;28.45;8.35;;;;;;;4.55;100.00;100815.59;5092762;28;20103;-80
2024/03/25 07:47:50;;;;;;;28.65;8.60;;;;;;;4.74;100.00;100824.91;5041133;28;20040;-78
2024/03/25 07:50:15;;;;;;;24.45;8.18;;;;;;;4.95;100.00;100817.34;5092143;28;20024;-78
2024/03/25 07:52:41;;;;;;;26.52;8.45;;;;;;;5.15;100.00;100812.53;5092060;28;20452;-79
2024/03/25 07:55:07;;;;;;;26.98;7.78;;;;;;;5.28;100.00;100818.66;5073969;28;20396;-79
2024/03/25 07:57:33;;;;;;;25.73;8.15;;;;;;;5.43;100.00;100816.75;5074147;28;20161;-80
2024/03/25 07:59:58;;;;;;;35.03;7.95;;;;;;;5.59;100.00;100811.25;5092430;28;20044;-79
2024/03/25 08:02:23;;;;;;;30.38;8.13;;;;;;;5.77;100.00;100814.38;5092140;28;20031;-80
2024/03/25 08:04:49;;;;;;;20.63;7.05;;;;;;;5.96;100.00;100814.75;5073945;28;20039;-81
2024/03/25 08:07:14;;;;;;;27.30;8.65;;;;;;;6.22;100.00;100809.44;5092107;28;20024;-78
2024/03/25 08:09:39;;;;;;;35.65;9.15;;;;;;;6.47;100.00;100805.00;5074854;28;20537;-78
2024/03/25 08:12:05;;;;;;;19.17;7.88;;;;;;;6.70;100.00;100801.50;5097963;28;20036;-78
2024/03/25 08:14:31;;;;;;;20.85;8.63;;;;;;;6.94;100.00;100805.03;5080839;28;20070;-82
2024/03/25 08:16:56;;;;;;;20.20;7.75;;;;;;;7.15;100.00;100806.06;5098071;28;20101;-80
2024/03/25 08:19:21;;;;;;;26.85;8.40;;;;;;;7.43;100.00;100800.44;5098832;28;20542;-79
2024/03/25 08:21:47;;;;;;;22.30;8.55;;;;;;;7.59;100.00;100800.91;5099200;28;20050;-78
2024/03/25 08:24:14;;;;;;;22.85;8.38;;;;;;;7.71;100.00;100809.69;5098411;28;20103;-79
2024/03/25 08:26:39;;;;;;;27.38;8.18;;;;;;;7.85;100.00;100800.66;5099722;28;20024;-81
2024/03/25 08:29:05;;;;;;;24.70;9.25;;;;;;;7.97;100.00;100802.31;5079767;28;20480;-81
2024/03/25 08:31:32;;;;;;;18.67;9.07;;;;;;;7.96;100.00;100803.28;5098806;28;20043;-80
2024/03/25 08:33:57;;;;;;;19.45;8.02;;;;;;;8.12;100.00;100795.78;5079730;28;20498;-79
2024/03/25 08:36:23;;;;;;;20.45;7.68;;;;;;;8.28;100.00;100791.88;5097139;28;20031;-78
2024/03/25 08:38:49;;;;;;;20.70;8.88;;;;;;;8.45;100.00;100795.84;5078125;28;20038;-79
2024/03/25 08:41:15;;;;;;;23.90;8.15;;;;;;;8.73;100.00;100786.44;5096872;28;20430;-79
2024/03/25 08:43:40;;;;;;;24.40;8.77;;;;;;;8.97;100.00;100785.31;5096514;28;20035;-76
2024/03/25 08:46:05;;;;;;;17.50;8.63;;;;;;;9.68;100.00;100780.09;5096254;28;20032;-77
2024/03/25 08:48:39;;;;;;;24.67;8.75;;;;;;;9.99;100.00;100787.19;5096172;28;20031;-77
2024/03/25 08:51:11;;;;;;;19.38;9.13;;;;;;;10.31;100.00;100780.78;5096808;28;20028;-77
2024/03/25 08:53:40;;;;;;;27.30;9.90;;;;;;;11.07;100.00;100777.41;5078743;28;20024;-77
2024/03/25 08:56:08;;;;;;;16.58;8.80;;;;;;;11.63;100.00;100767.69;5095824;28;20048;-78
2024/03/25 08:58:34;;;;;;;16.92;7.75;;;;;;;12.31;100.00;100766.44;5061047;28;20024;-78
2024/03/25 09:00:59;;;;;;;17.27;8.45;;;;;;;12.88;100.00;100763.41;5095547;28;20085;-78
2024/03/25 09:03:24;;;;;;;17.48;8.18;;;;;;;13.50;100.00;100760.63;5076695;28;20162;-80
2024/03/25 09:05:50;;;;;;;23.20;7.57;;;;;;;13.98;100.00;100752.94;5076781;28;20032;-78
2024/03/25 09:08:15;;;;;;;16.85;7.10;;;;;;;14.46;100.00;100753.19;5095992;28;20024;-77
2024/03/25 09:13:28;;;;;;;15.18;7.10;;;;;;;15.28;100.00;100760.31;5097001;28;20071;-79
2024/03/25 09:15:53;;;;;;;17.35;7.75;;;;;;;15.96;100.00;100756.22;5097201;28;20452;-79
2024/03/25 09:18:19;;;;;;;17.13;6.20;;;;;;;16.03;100.00;100756.34;5096237;28;20061;-81
2024/03/25 09:20:44;;;;;;;16.77;6.57;;;;;;;16.77;100.00;100749.59;5078565;28;20118;-78
2024/03/25 09:23:10;;;;;;;13.00;5.97;;;;;;;17.45;100.00;100745.88;5060353;28;20089;-78
2024/03/25 09:25:38;;;;;;;12.32;6.45;;;;;;;17.71;100.00;100743.72;5098280;28;20032;-82
2024/03/25 09:28:04;;;;;;;12.20;5.95;;;;;;;18.05;100.00;100745.78;5063168;28;20038;-79
2024/03/25 09:30:40;;;;;;;15.25;6.90;;;;;;;18.12;100.00;100738.63;5078480;28;20028;-80
2024/03/25 09:33:06;;;;;;;12.68;6.80;;;;;;;17.90;100.00;100734.22;5078045;28;20166;-79
2024/03/25 09:35:31;;;;;;;19.05;7.45;;;;;;;17.63;100.00;100728.50;5097392;28;20106;-78
2024/03/25 09:37:56;;;;;;;18.58;7.35;;;;;;;18.15;100.00;100735.53;5094884;28;20031;-81
2024/03/25 09:40:22;;;;;;;21.40;8.23;;;;;;;17.94;100.00;100730.13;5095920;28;20032;-80
2024/03/25 09:42:56;;;;;;;14.75;7.72;;;;;;;16.49;100.00;100718.75;5095802;28;20024;-78
2024/03/25 09:45:24;;;;;;;17.55;8.27;;;;;;;16.48;100.00;100724.31;5093874;28;20432;-81
2024/03/25 09:47:56;;;;;;;21.38;8.27;;;;;;;16.30;100.00;100719.25;5096121;28;20085;-79
2024/03/25 09:50:22;;;;;;;18.08;7.20;;;;;;;15.86;100.00;100724.22;5096332;28;20028;-78
2024/03/25 09:52:55;;;;;;;19.88;8.95;;;;;;;15.26;100.00;100724.81;5077702;28;20032;-79
2024/03/25 09:55:23;;;;;;;16.50;8.50;;;;;;;14.49;100.00;100727.94;5076868;28;20131;-78
2024/03/25 09:57:48;;;;;;;17.58;8.15;;;;;;;14.04;100.00;100724.72;5079117;28;20111;-81
2024/03/25 10:00:14;;;;;;;15.65;8.07;;;;;;;14.45;100.00;100730.94;5096002;28;20070;-81
2024/03/25 10:02:41;;;;;;;18.50;9.38;;;;;;;14.39;100.00;100720.91;5094920;28;20175;-80
2024/03/25 10:05:08;;;;;;;16.48;7.82;;;;;;;14.33;100.00;100718.03;5076094;28;20020;-83
2024/03/25 10:07:34;;;;;;;15.23;8.32;;;;;;;14.51;100.00;100720.56;5061858;28;20089;-81
2024/03/25 10:10:04;;;;;;;14.23;7.63;;;;;;;14.39;100.00;100725.41;5095784;28;20016;-80
2024/03/25 10:12:30;;;;;;;15.33;7.63;;;;;;;13.83;100.00;100722.50;5095655;28;20024;-79
2024/03/25 10:14:59;;;;;;;16.33;7.80;;;;;;;13.60;100.00;100722.25;5097384;28;20055;-80
2024/03/25 10:17:25;;;;;;;16.10;7.40;;;;;;;13.33;100.00;100719.63;5061354;28;20441;-79
2024/03/25 10:19:50;;;;;;;14.70;7.32;;;;;;;14.48;100.00;100720.88;5097422;28;20063;-80
2024/03/25 10:22:16;;;;;;;14.68;7.65;;;;;;;14.89;100.00;100715.53;5080101;28;20035;-80
2024/03/25 10:24:45;;;;;;;13.15;7.47;;;;;;;15.79;100.00;100714.38;5098020;28;20024;-81
2024/03/25 10:27:20;;;;;;;14.70;7.85;;;;;;;16.60;100.00;100716.66;5080109;28;20039;-79
2024/03/25 10:29:47;;;;;;;13.65;7.82;;;;;;;16.43;100.00;100705.22;5097713;28;20024;-81
2024/03/25 10:32:16;;;;;;;15.60;7.60;;;;;;;17.28;100.00;100698.66;5097021;28;20111;-78
2024/03/25 10:34:41;;;;;;;17.70;8.02;;;;;;;17.87;100.00;100700.44;5096176;28;20471;-78
2024/03/25 10:37:14;;;;;;;19.60;7.70;;;;;;;18.37;100.00;100702.38;5096222;28;20035;-78
2024/03/25 10:39:47;;;;;;;13.52;6.80;;;;;;;18.63;100.00;100704.44;5094645;28;20069;-76
2024/03/25 10:42:21;;;;;;;12.32;6.20;;;;;;;18.20;100.00;100688.34;5094826;28;20111;-79
2024/03/25 10:44:52;;;;;;;12.65;6.05;;;;;;;18.64;100.00;100690.78;5079060;28;20051;-80
2024/03/25 10:47:30;;;;;;;11.55;6.18;;;;;;;18.99;100.00;100688.16;5096255;28;20020;-79
2024/03/25 10:50:04;;;;;;;10.02;6.07;;;;;;;19.14;100.00;100692.59;5096566;28;20020;-78
2024/03/25 10:52:33;;;;;;;13.93;6.93;;;;;;;18.97;100.00;100682.16;5095405;28;20077;-79
2024/03/25 10:54:59;;;;;;;12.20;6.35;;;;;;;19.09;100.00;100679.69;5062200;28;20436;-78
2024/03/25 10:57:26;;;;;;;11.65;5.90;;;;;;;19.13;100.00;100677.44;5097766;28;20107;-79
2024/03/25 10:59:52;;;;;;;11.85;6.25;;;;;;;18.75;100.00;100675.97;5094083;28;20039;-80
2024/03/25 11:02:19;;;;;;;9.85;5.50;;;;;;;19.13;100.00;100669.34;5095895;28;20043;-79
2024/03/25 11:04:45;;;;;;;10.80;5.10;;;;;;;19.68;100.00;100658.56;5075135;28;20114;-79
2024/03/25 11:07:16;;;;;;;14.73;5.63;;;;;;;19.58;100.00;100660.81;5096017;28;20034;-79
2024/03/25 11:09:42;;;;;;;7.35;4.68;;;;;;;19.67;100.00;100656.91;5095625;28;20494;-80
2024/03/25 11:12:12;;;;;;;7.85;4.63;;;;;;;18.93;100.00;100658.44;5078666;28;20057;-79
2024/03/25 11:14:38;;;;;;;10.65;5.03;;;;;;;19.23;100.00;100660.88;5092731;28;20100;-79
2024/03/25 11:17:15;;;;;;;10.50;4.00;;;;;;;19.28;100.00;100645.78;5092435;28;20532;-79